Argonia, Kansas
Current Conditions -  °F | °C
As of 1:53 AM on Saturday 25 Oct 2014 (Local Time) from KICT Reporting Station
Haze Haze  
Wind Chill: 59°   Ceiling: Unl
Heat Index: 59°   Visibility: 6mi
Dew Point: 56°   Wind: 5mph
Humidity: 90%   Direction: 200°SSW
Pressure: 30.02"   Gusts: NA
Location:  37.27°N, 97.77°W
Report Text: KICT 250653Z 20004KT 6SM BR CLR 15/13 A3002 RMK AO2 SLP156 T01500133
Loading
Personal Weather Stations






























Interactive Weather Map
Tropical Storm Tracking
New forecast layout! Learn more

10-Day Weather Forecast

Advertisements
Track Severe Weather on mobile